Time;durP1;ratioP1;P1;durP2;ratioP2;P2;SDS_P1;SDS_P2;PMS_P1;PMS_P2;Temp;Humidity;BMP_temperature;BMP_pressure;BME280_temperature;BME280_humidity;BME280_pressure;Samples;Min_cycle;Max_cycle;Signal;HPM_P1;HPM_P2
2022/01/12 00:02:17;;;;;;;24.87;9.67;;;2.20;99.90;;;;;;5078659;28;20696;-61
2022/01/12 00:04:44;;;;;;;23.10;9.90;;;2.20;99.90;;;;;;5084607;28;20222;-60
2022/01/12 00:07:11;;;;;;;20.50;8.53;;;2.30;99.90;;;;;;5079411;28;20216;-61
2022/01/12 00:09:38;;;;;;;30.03;11.40;;;2.30;99.90;;;;;;5083906;28;20299;-61
2022/01/12 00:12:06;;;;;;;20.80;8.90;;;2.20;99.90;;;;;;5082227;28;20204;-61
2022/01/12 00:14:35;;;;;;;22.23;8.43;;;2.20;99.90;;;;;;5092686;28;20196;-61
2022/01/12 00:17:02;;;;;;;22.90;9.60;;;2.20;99.90;;;;;;5084929;28;20185;-61
2022/01/12 00:19:29;;;;;;;19.70;7.97;;;2.20;99.90;;;;;;5063403;28;20618;-63
2022/01/12 00:21:56;;;;;;;15.40;7.30;;;2.20;99.90;;;;;;5089455;28;20192;-61
2022/01/12 00:24:26;;;;;;;17.80;8.40;;;2.20;99.90;;;;;;5076547;28;20204;-61
2022/01/12 00:35:20;;;;;;;18.53;7.77;;;2.30;99.90;;;;;;5014480;28;20264;-60
2022/01/12 00:37:47;;;;;;;16.00;7.43;;;2.30;99.90;;;;;;5013062;28;20202;-61
2022/01/12 00:40:14;;;;;;;13.87;6.50;;;2.30;99.90;;;;;;5041575;28;20318;-61
2022/01/12 00:42:41;;;;;;;16.50;7.47;;;2.30;99.90;;;;;;5068235;28;20200;-61
2022/01/12 00:45:11;;;;;;;13.87;6.70;;;2.30;99.90;;;;;;5089333;28;20196;-61
2022/01/12 00:47:38;;;;;;;18.17;8.37;;;2.20;99.90;;;;;;5067087;28;20197;-61
2022/01/12 00:50:06;;;;;;;18.57;7.80;;;2.20;99.90;;;;;;5088533;28;20208;-61
2022/01/12 00:52:33;;;;;;;21.93;8.83;;;2.20;99.90;;;;;;5084505;28;20200;-60
2022/01/12 00:55:00;;;;;;;21.90;9.30;;;2.10;99.90;;;;;;5087028;28;20630;-62
2022/01/12 00:57:27;;;;;;;19.57;8.97;;;2.10;99.90;;;;;;5083562;28;20216;-62
2022/01/12 00:59:54;;;;;;;19.77;8.57;;;2.10;99.90;;;;;;5080558;28;20204;-62
2022/01/12 01:02:22;;;;;;;21.90;9.23;;;1.90;99.90;;;;;;5070171;28;20196;-61
2022/01/12 01:04:50;;;;;;;21.00;8.23;;;1.90;99.90;;;;;;5057340;28;20255;-61
2022/01/12 01:07:17;;;;;;;23.57;9.50;;;1.90;99.90;;;;;;5059774;28;20331;-63
2022/01/12 01:09:56;;;;;;;16.43;7.57;;;1.90;99.90;;;;;;5068292;28;20201;-61
2022/01/12 01:12:24;;;;;;;17.17;7.57;;;1.90;99.90;;;;;;5075317;28;20193;-61
2022/01/12 01:15:02;;;;;;;16.43;7.97;;;1.90;99.90;;;;;;5085570;28;20693;-62
2022/01/12 01:25:47;;;;;;;22.87;9.77;;;1.80;99.90;;;;;;5069205;28;20212;-61
2022/01/12 01:28:15;;;;;;;23.17;7.87;;;1.80;99.90;;;;;;5089349;28;20196;-63
2022/01/12 01:30:45;;;;;;;21.27;9.50;;;1.70;99.90;;;;;;5085543;28;20193;-62
2022/01/12 01:33:17;;;;;;;21.67;8.10;;;1.70;99.90;;;;;;5071311;28;20737;-63
2022/01/12 01:35:50;;;;;;;19.83;8.13;;;1.70;99.90;;;;;;5062721;28;20664;-62
2022/01/12 01:38:17;;;;;;;19.77;8.27;;;1.80;99.90;;;;;;5083514;28;20275;-62
2022/01/12 01:40:45;;;;;;;18.17;7.57;;;1.70;99.90;;;;;;5068382;28;20204;-62
2022/01/12 01:43:21;;;;;;;19.33;8.07;;;1.60;99.90;;;;;;5065139;28;20672;-63
2022/01/12 01:54:07;;;;;;;20.27;7.70;;;1.70;99.90;;;;;;5069739;28;20241;-62
2022/01/12 01:56:34;;;;;;;15.03;7.00;;;1.60;99.90;;;;;;5068804;28;20638;-61
2022/01/12 01:59:01;;;;;;;16.67;6.97;;;1.60;99.90;;;;;;5083808;28;20224;-62
2022/01/12 02:01:30;;;;;;;18.97;7.57;;;1.60;99.90;;;;;;5069355;28;20248;-62
2022/01/12 02:04:04;;;;;;;17.43;6.93;;;1.70;99.90;;;;;;5060948;28;20300;-61
2022/01/12 02:06:34;;;;;;;15.40;6.80;;;1.60;99.90;;;;;;5067088;28;20733;-61
2022/01/12 02:09:03;;;;;;;13.37;6.17;;;1.60;99.90;;;;;;5072386;28;20200;-61
2022/01/12 02:11:38;;;;;;;13.40;6.30;;;1.70;99.90;;;;;;5061854;28;20203;-61
2022/01/12 02:14:14;;;;;;;13.10;5.70;;;1.70;99.90;;;;;;5069729;28;20234;-61
2022/01/12 02:16:52;;;;;;;12.77;5.57;;;1.70;99.90;;;;;;5061237;28;20242;-61
2022/01/12 02:19:43;;;;;;;15.33;6.03;;;1.70;99.90;;;;;;5058782;28;20201;-62
2022/01/12 02:36:08;;;;;;;10.93;5.50;;;1.50;99.90;;;;;;5074829;28;20666;-62
2022/01/12 02:41:21;;;;;;;8.60;5.20;;;1.40;99.90;;;;;;5083581;28;20208;-62
2022/01/12 02:54:57;;;;;;;13.60;5.60;;;1.50;99.90;;;;;;5011505;28;20714;-62
2022/01/12 02:57:26;;;;;;;9.50;4.90;;;1.50;99.90;;;;;;5037579;28;20275;-62
2022/01/12 03:00:05;;;;;;;10.23;4.87;;;1.40;99.90;;;;;;5048361;28;20206;-62
2022/01/12 03:02:36;;;;;;;9.57;4.90;;;1.40;99.90;;;;;;5048745;28;20193;-62
2022/01/12 03:07:46;;;;;;;8.77;4.63;;;1.40;99.90;;;;;;5033004;28;20241;-61
2022/01/12 03:10:15;;;;;;;10.33;5.60;;;1.40;99.90;;;;;;5036188;28;21031;-62
2022/01/12 03:12:45;;;;;;;9.67;5.00;;;1.40;99.90;;;;;;5041866;28;20214;-62
2022/01/12 03:15:16;;;;;;;9.13;4.50;;;1.30;99.90;;;;;;5040721;28;20271;-61
2022/01/12 03:17:44;;;;;;;10.90;4.90;;;1.30;99.90;;;;;;5033021;28;20218;-61
2022/01/12 03:20:12;;;;;;;8.93;4.93;;;1.30;99.90;;;;;;5040251;28;20550;-61
2022/01/12 03:22:40;;;;;;;11.07;4.70;;;1.30;99.90;;;;;;5044752;28;20198;-61
2022/01/12 03:25:08;;;;;;;9.97;5.03;;;1.30;99.90;;;;;;5048899;28;20685;-61
2022/01/12 03:27:38;;;;;;;8.40;4.60;;;1.20;99.90;;;;;;5043767;28;20218;-61
2022/01/12 03:30:06;;;;;;;8.97;4.73;;;1.20;99.90;;;;;;5041300;28;20220;-61
2022/01/12 03:32:39;;;;;;;9.07;5.07;;;1.20;99.90;;;;;;5059823;28;20217;-61
2022/01/12 03:35:11;;;;;;;6.60;4.20;;;1.20;99.90;;;;;;5047322;28;20268;-61
2022/01/12 03:37:54;;;;;;;7.30;4.00;;;1.20;99.90;;;;;;5045066;28;20193;-61
2022/01/12 03:40:22;;;;;;;6.20;3.60;;;1.20;99.90;;;;;;5042164;28;20202;-62
2022/01/12 03:42:50;;;;;;;9.20;4.03;;;1.20;99.90;;;;;;5045480;28;20205;-62
2022/01/12 03:45:18;;;;;;;6.00;3.70;;;1.30;99.90;;;;;;5041643;28;20194;-62
2022/01/12 03:47:45;;;;;;;6.07;3.90;;;1.30;99.90;;;;;;5047743;28;20220;-62
2022/01/12 03:50:12;;;;;;;5.77;3.53;;;1.30;99.90;;;;;;5040770;28;20195;-62
2022/01/12 03:52:40;;;;;;;5.33;3.33;;;1.30;99.90;;;;;;5041570;28;20206;-63
2022/01/12 03:55:08;;;;;;;6.27;3.30;;;1.40;99.90;;;;;;5043882;28;20597;-60
2022/01/12 03:57:35;;;;;;;15.17;7.00;;;1.30;99.90;;;;;;5056629;28;20197;-62
2022/01/12 04:00:05;;;;;;;10.43;5.33;;;1.40;99.90;;;;;;5057302;28;20209;-62
2022/01/12 04:02:41;;;;;;;18.17;7.60;;;1.40;99.90;;;;;;5060920;28;20197;-61
2022/01/12 04:05:25;;;;;;;12.50;6.73;;;1.40;99.90;;;;;;5049918;28;20225;-62
2022/01/12 04:10:37;;;;;;;17.27;8.43;;;1.40;99.90;;;;;;5067496;28;20207;-61
2022/01/12 04:13:04;;;;;;;16.77;8.30;;;1.40;99.90;;;;;;5071488;28;20196;-62
2022/01/12 04:15:33;;;;;;;13.13;7.10;;;1.40;99.90;;;;;;5064852;28;20229;-61
2022/01/12 04:18:00;;;;;;;12.87;6.23;;;1.40;99.90;;;;;;5065622;28;20227;-61
2022/01/12 04:20:27;;;;;;;9.53;5.63;;;1.40;99.90;;;;;;5066014;28;20205;-61
2022/01/12 04:25:39;;;;;;;11.27;6.30;;;1.30;99.90;;;;;;5063018;28;20276;-61
2022/01/12 04:28:07;;;;;;;11.10;5.47;;;1.30;99.90;;;;;;5060206;28;20229;-61
2022/01/12 04:30:35;;;;;;;11.83;5.77;;;1.30;99.90;;;;;;5066328;28;20197;-62
2022/01/12 04:33:03;;;;;;;11.67;6.37;;;1.20;99.90;;;;;;5053806;28;20204;-61
2022/01/12 04:35:35;;;;;;;14.37;7.50;;;1.20;99.90;;;;;;5059867;28;20215;-61
2022/01/12 04:38:03;;;;;;;17.43;7.47;;;1.10;99.90;;;;;;5074580;28;20198;-63
2022/01/12 04:40:30;;;;;;;24.50;9.90;;;1.00;99.90;;;;;;5060123;28;20296;-61
2022/01/12 04:42:57;;;;;;;21.00;9.70;;;0.90;99.90;;;;;;5054655;28;20560;-61
2022/01/12 04:45:41;;;;;;;19.73;9.67;;;0.90;99.90;;;;;;5061224;28;20197;-62
2022/01/12 04:48:31;;;;;;;19.77;8.80;;;0.80;99.90;;;;;;5057361;28;20231;-62
2022/01/12 04:50:59;;;;;;;19.43;9.33;;;0.70;99.90;;;;;;5052559;28;20589;-61
2022/01/12 04:53:26;;;;;;;19.60;9.00;;;0.70;99.90;;;;;;5057952;28;20209;-61
2022/01/12 04:55:54;;;;;;;25.23;11.70;;;0.70;99.90;;;;;;5056119;28;20244;-61
2022/01/12 04:58:22;;;;;;;21.80;10.43;;;0.70;99.90;;;;;;5066151;28;20697;-61
2022/01/12 05:00:51;;;;;;;34.30;15.50;;;0.70;99.90;;;;;;5066210;28;20568;-62
2022/01/12 05:06:38;;;;;;;26.00;12.33;;;0.60;99.90;;;;;;5050787;28;20604;-62
2022/01/12 05:09:16;;;;;;;23.30;11.20;;;0.70;99.90;;;;;;5038867;28;20194;-62
2022/01/12 05:14:38;;;;;;;28.70;12.30;;;0.60;99.90;;;;;;5043944;28;20204;-61
2022/01/12 05:17:06;;;;;;;46.20;19.73;;;0.50;99.90;;;;;;5067402;28;20684;-61
2022/01/12 05:19:34;;;;;;;40.13;17.17;;;0.40;99.90;;;;;;5050752;28;20232;-61
2022/01/12 05:22:02;;;;;;;29.43;13.77;;;0.40;99.90;;;;;;5066532;28;20301;-62
2022/01/12 05:24:30;;;;;;;29.40;13.83;;;0.50;99.90;;;;;;5049791;28;20661;-62
2022/01/12 05:26:57;;;;;;;47.87;19.47;;;0.50;99.90;;;;;;5047733;28;20304;-62
2022/01/12 05:29:24;;;;;;;38.13;17.20;;;0.50;99.90;;;;;;5047754;28;20301;-62
2022/01/12 05:31:52;;;;;;;37.47;15.67;;;0.50;99.90;;;;;;5066911;28;20263;-62
2022/01/12 05:34:20;;;;;;;27.57;13.00;;;0.50;99.90;;;;;;5048435;28;20573;-62
2022/01/12 05:36:49;;;;;;;32.50;14.40;;;0.40;99.90;;;;;;5066176;28;20202;-61
2022/01/12 05:39:16;;;;;;;32.53;14.43;;;0.40;99.90;;;;;;5049390;28;20189;-62
2022/01/12 05:41:44;;;;;;;34.37;14.43;;;0.50;99.90;;;;;;5064514;28;20233;-61
2022/01/12 05:44:11;;;;;;;31.87;13.13;;;0.50;99.90;;;;;;5047554;28;20211;-62
2022/01/12 05:46:41;;;;;;;27.53;12.40;;;0.40;99.90;;;;;;5066048;28;20202;-62
2022/01/12 05:49:36;;;;;;;28.17;12.13;;;0.40;99.90;;;;;;5047612;28;20213;-61
2022/01/12 05:52:07;;;;;;;25.73;11.77;;;0.40;99.90;;;;;;5036560;28;20209;-61
2022/01/12 05:54:34;;;;;;;31.00;12.87;;;0.30;99.90;;;;;;5066861;28;20209;-61
2022/01/12 05:57:01;;;;;;;24.10;11.07;;;0.30;99.90;;;;;;5081226;28;20587;-61
2022/01/12 05:59:28;;;;;;;26.77;11.20;;;0.20;99.90;;;;;;5061166;28;20216;-61
2022/01/12 06:01:57;;;;;;;25.40;10.97;;;0.10;99.90;;;;;;5071052;28;20193;-61
2022/01/12 06:04:25;;;;;;;20.73;9.33;;;0.10;99.90;;;;;;5073448;28;20287;-61
2022/01/12 06:06:52;;;;;;;25.00;11.77;;;0.20;99.90;;;;;;5082495;28;20210;-61
2022/01/12 06:09:22;;;;;;;33.70;13.87;;;0.20;99.90;;;;;;5089557;28;20530;-61
2022/01/12 06:11:50;;;;;;;47.30;18.13;;;0.20;99.90;;;;;;5072811;28;20238;-61
2022/01/12 06:14:20;;;;;;;35.37;14.43;;;0.20;99.90;;;;;;5072223;28;20291;-61
2022/01/12 06:16:47;;;;;;;44.20;17.30;;;0.10;99.90;;;;;;5070710;28;20196;-61
2022/01/12 06:19:16;;;;;;;31.60;13.43;;;0.00;99.90;;;;;;5073060;28;20323;-62
2022/01/12 06:21:56;;;;;;;36.50;15.00;;;0.00;99.90;;;;;;5064385;28;20201;-61
2022/01/12 06:24:29;;;;;;;31.90;13.83;;;0.00;99.90;;;;;;5067557;28;20793;-61
2022/01/12 06:26:59;;;;;;;32.13;12.43;;;0.10;99.90;;;;;;5090156;28;20563;-60
2022/01/12 06:29:39;;;;;;;29.27;12.10;;;0.00;99.90;;;;;;5088778;28;20199;-62
2022/01/12 06:32:07;;;;;;;40.07;16.17;;;-0.10;99.90;;;;;;5071449;28;20208;-61
2022/01/12 06:34:35;;;;;;;40.17;15.50;;;-0.10;99.90;;;;;;5079142;28;20237;-62
2022/01/12 06:37:03;;;;;;;38.03;15.13;;;0.00;99.90;;;;;;5074009;28;20197;-63
2022/01/12 06:39:33;;;;;;;37.53;15.23;;;0.00;99.90;;;;;;5060888;28;20303;-62
2022/01/12 06:42:00;;;;;;;33.13;13.67;;;0.00;99.90;;;;;;5075573;28;20221;-62
2022/01/12 06:44:28;;;;;;;26.13;11.87;;;0.00;99.90;;;;;;5060657;28;20582;-62
2022/01/12 06:46:57;;;;;;;31.40;12.47;;;0.10;99.90;;;;;;5056592;28;20483;-62
2022/01/12 06:49:24;;;;;;;46.03;18.47;;;0.10;99.90;;;;;;5079564;28;20576;-62
2022/01/12 06:51:53;;;;;;;38.47;14.77;;;0.30;99.90;;;;;;5057797;28;20205;-62
2022/01/12 06:54:20;;;;;;;34.20;13.87;;;0.20;99.90;;;;;;5067236;28;20199;-62
2022/01/12 06:56:49;;;;;;;27.20;12.13;;;0.20;99.90;;;;;;5058041;28;20241;-61
2022/01/12 06:59:16;;;;;;;31.37;13.77;;;0.10;99.90;;;;;;5069621;28;20741;-62
2022/01/12 07:01:44;;;;;;;55.03;20.37;;;0.20;99.90;;;;;;5063882;28;20598;-61
2022/01/12 07:04:12;;;;;;;49.33;18.33;;;0.20;99.90;;;;;;5070518;28;20227;-61
2022/01/12 07:06:40;;;;;;;44.77;17.43;;;0.10;99.90;;;;;;5088228;28;20228;-61
2022/01/12 07:09:07;;;;;;;37.30;15.57;;;0.10;99.90;;;;;;5086824;28;20208;-61
2022/01/12 07:11:49;;;;;;;33.37;14.20;;;0.10;99.90;;;;;;5063804;28;20197;-61
2022/01/12 07:17:48;;;;;;;55.73;20.13;;;0.00;99.90;;;;;;5056147;28;20185;-61
2022/01/12 07:20:16;;;;;;;54.10;20.17;;;0.10;99.90;;;;;;5070731;28;20744;-62
2022/01/12 07:22:44;;;;;;;37.63;15.87;;;0.10;99.90;;;;;;5061735;28;20812;-61
2022/01/12 07:25:11;;;;;;;31.30;13.27;;;0.10;99.90;;;;;;5089643;28;20640;-62
2022/01/12 07:27:41;;;;;;;31.07;12.60;;;0.10;99.90;;;;;;5088241;28;21083;-62
2022/01/12 07:30:09;;;;;;;31.13;12.80;;;0.20;99.90;;;;;;5089176;28;20552;-62
2022/01/12 07:32:36;;;;;;;32.97;14.23;;;0.20;99.90;;;;;;5088777;28;20675;-62
2022/01/12 07:35:04;;;;;;;47.83;19.30;;;0.30;99.90;;;;;;5089501;28;20226;-61
2022/01/12 07:37:31;;;;;;;50.93;20.27;;;0.30;99.90;;;;;;5088767;28;20193;-61
2022/01/12 07:39:59;;;;;;;50.83;19.70;;;0.40;99.90;;;;;;5089898;28;20195;-61
2022/01/12 07:42:26;;;;;;;40.07;15.93;;;0.30;99.90;;;;;;5089326;28;20234;-61
2022/01/12 07:45:01;;;;;;;36.20;15.70;;;0.30;99.90;;;;;;5070356;28;20204;-62
2022/01/12 07:47:29;;;;;;;32.60;13.67;;;0.30;99.90;;;;;;5081116;28;20497;-62
2022/01/12 07:49:57;;;;;;;33.73;13.47;;;0.40;99.90;;;;;;5089676;28;20192;-62
2022/01/12 07:52:25;;;;;;;28.17;12.17;;;0.40;99.90;;;;;;5081650;28;20196;-61
2022/01/12 07:54:52;;;;;;;40.73;16.03;;;0.40;99.90;;;;;;5071054;28;20218;-62
2022/01/12 07:57:19;;;;;;;40.40;16.37;;;0.40;99.90;;;;;;5082799;28;20292;-62
2022/01/12 07:59:47;;;;;;;31.17;13.90;;;0.50;99.90;;;;;;5082979;28;20238;-62
2022/01/12 08:02:15;;;;;;;30.70;12.83;;;0.50;99.90;;;;;;5082471;28;20667;-62
2022/01/12 08:04:42;;;;;;;26.27;10.80;;;0.60;99.90;;;;;;5068849;28;20200;-61
2022/01/12 08:07:11;;;;;;;20.90;9.73;;;0.60;99.90;;;;;;5086628;28;20202;-62
2022/01/12 08:09:38;;;;;;;27.00;10.73;;;0.60;99.90;;;;;;5070097;28;20213;-61
2022/01/12 08:12:06;;;;;;;33.23;13.83;;;0.70;99.90;;;;;;5075495;28;20193;-62
2022/01/12 08:14:34;;;;;;;20.53;9.50;;;0.70;99.90;;;;;;5081308;28;20204;-62
2022/01/12 08:17:01;;;;;;;20.47;9.53;;;0.70;99.90;;;;;;5080033;28;20188;-61
2022/01/12 08:19:33;;;;;;;31.03;12.13;;;0.80;99.90;;;;;;5072596;28;20653;-61
2022/01/12 08:22:01;;;;;;;36.93;15.13;;;0.90;99.90;;;;;;5081708;28;20193;-61
2022/01/12 08:24:28;;;;;;;32.37;13.97;;;0.90;99.90;;;;;;5084525;28;20199;-62
2022/01/12 08:26:55;;;;;;;29.30;13.40;;;0.90;99.90;;;;;;5079778;28;20200;-61
2022/01/12 08:29:23;;;;;;;33.10;12.43;;;1.00;99.90;;;;;;5084796;28;20212;-62
2022/01/12 08:31:51;;;;;;;29.50;11.60;;;1.00;99.90;;;;;;5082106;28;20618;-61
2022/01/12 08:34:18;;;;;;;41.77;16.63;;;1.00;99.90;;;;;;5063553;28;20240;-61
2022/01/12 08:36:46;;;;;;;43.27;17.60;;;1.10;99.90;;;;;;5071936;28;20230;-61
2022/01/12 08:39:13;;;;;;;36.00;15.13;;;1.10;99.90;;;;;;5086619;28;20219;-62
2022/01/12 08:41:41;;;;;;;29.43;12.87;;;1.00;99.90;;;;;;5089008;28;20193;-62
2022/01/12 08:44:09;;;;;;;21.53;10.47;;;1.10;99.90;;;;;;5068281;28;20575;-62
2022/01/12 08:46:39;;;;;;;21.73;10.43;;;1.10;99.90;;;;;;5064163;28;20267;-62
2022/01/12 08:49:06;;;;;;;23.17;10.37;;;1.10;99.90;;;;;;5074406;28;20205;-62
2022/01/12 08:51:33;;;;;;;18.27;8.83;;;1.20;99.90;;;;;;5081646;28;20250;-62
2022/01/12 08:54:02;;;;;;;44.97;17.40;;;1.20;99.90;;;;;;5081713;28;20205;-62
2022/01/12 08:56:29;;;;;;;35.13;14.23;;;1.30;99.90;;;;;;5086164;28;20666;-62
2022/01/12 08:58:56;;;;;;;24.90;11.73;;;1.30;99.90;;;;;;5085413;28;20184;-62
2022/01/12 09:01:23;;;;;;;25.93;11.37;;;1.30;99.90;;;;;;5078829;28;20208;-61
2022/01/12 09:03:50;;;;;;;24.73;10.93;;;1.30;99.90;;;;;;5091097;28;20275;-62
2022/01/12 09:06:17;;;;;;;51.27;19.00;;;1.20;99.90;;;;;;5086509;28;20204;-62
2022/01/12 09:08:45;;;;;;;37.80;15.47;;;1.30;99.90;;;;;;5081486;28;20712;-62
2022/01/12 09:11:14;;;;;;;44.07;17.50;;;1.30;99.90;;;;;;5085225;28;20594;-63
2022/01/12 09:13:42;;;;;;;33.03;13.30;;;1.30;99.90;;;;;;5072579;28;20645;-62
2022/01/12 09:16:10;;;;;;;37.90;16.03;;;1.30;99.90;;;;;;5090897;28;20257;-62
2022/01/12 09:18:40;;;;;;;33.37;14.37;;;1.40;99.90;;;;;;5071241;28;20682;-62
2022/01/12 09:21:07;;;;;;;26.23;10.73;;;1.40;99.90;;;;;;5073097;28;20707;-62
2022/01/12 09:23:35;;;;;;;22.13;10.30;;;1.40;99.90;;;;;;5091712;28;20246;-62
2022/01/12 09:26:03;;;;;;;18.03;8.83;;;1.50;99.90;;;;;;5090759;28;20200;-62
2022/01/12 09:28:32;;;;;;;17.57;8.70;;;1.60;99.90;;;;;;5078979;28;20220;-62
2022/01/12 09:30:59;;;;;;;27.87;12.13;;;1.70;99.90;;;;;;5090451;28;20223;-62
2022/01/12 09:33:26;;;;;;;51.47;20.53;;;1.80;99.90;;;;;;5091582;28;20664;-62
2022/01/12 09:35:54;;;;;;;46.50;19.70;;;1.90;99.90;;;;;;5091186;28;20647;-62
2022/01/12 09:38:22;;;;;;;32.57;15.67;;;1.80;99.90;;;;;;5091583;28;20202;-62
2022/01/12 09:40:53;;;;;;;27.43;12.40;;;1.90;99.90;;;;;;5087404;28;20223;-62
2022/01/12 09:43:22;;;;;;;21.80;10.40;;;1.90;99.90;;;;;;5072490;28;20211;-62
2022/01/12 09:45:53;;;;;;;29.77;12.90;;;2.00;99.90;;;;;;5090386;28;20287;-62
2022/01/12 09:48:23;;;;;;;27.60;11.27;;;2.10;99.90;;;;;;5092344;28;20211;-61
2022/01/12 09:50:51;;;;;;;21.07;9.20;;;2.20;99.90;;;;;;5071655;28;20212;-61
2022/01/12 09:53:19;;;;;;;16.60;8.47;;;2.30;99.90;;;;;;5060072;28;20659;-62
2022/01/12 09:55:46;;;;;;;17.60;7.93;;;2.30;99.90;;;;;;5091271;28;20232;-61
2022/01/12 09:58:13;;;;;;;30.50;11.47;;;2.70;99.90;;;;;;5090702;28;20203;-62
2022/01/12 10:00:40;;;;;;;57.57;20.63;;;2.40;99.90;;;;;;5090403;28;20192;-62
2022/01/12 10:03:13;;;;;;;33.77;14.30;;;2.50;99.90;;;;;;5069359;28;20203;-62
2022/01/12 10:05:40;;;;;;;32.17;13.03;;;2.50;99.90;;;;;;5080395;28;20292;-62
2022/01/12 10:08:12;;;;;;;27.03;12.00;;;2.50;99.90;;;;;;5091226;28;20286;-62
2022/01/12 10:10:40;;;;;;;29.23;12.53;;;2.60;99.90;;;;;;5080035;28;20188;-62
2022/01/12 10:13:22;;;;;;;24.03;10.37;;;2.60;99.90;;;;;;5089887;28;20593;-62
2022/01/12 10:15:51;;;;;;;18.97;8.33;;;2.60;99.90;;;;;;5080499;28;20567;-62
2022/01/12 10:18:22;;;;;;;22.87;9.17;;;2.60;99.90;;;;;;5079945;28;20188;-62
2022/01/12 10:21:08;;;;;;;31.70;13.03;;;2.60;99.90;;;;;;5091202;28;20188;-62
2022/01/12 10:23:38;;;;;;;24.00;11.10;;;2.60;99.90;;;;;;5058071;28;20580;-62
2022/01/12 10:26:05;;;;;;;53.83;21.10;;;2.60;99.90;;;;;;5086767;28;20530;-62
2022/01/12 10:28:35;;;;;;;68.80;25.53;;;2.70;99.90;;;;;;5072673;28;20710;-62
2022/01/12 10:31:05;;;;;;;51.17;21.10;;;2.70;99.90;;;;;;5080565;28;20196;-62
2022/01/12 10:33:35;;;;;;;61.13;22.50;;;2.60;99.90;;;;;;5090905;28;20203;-62
2022/01/12 10:36:06;;;;;;;53.97;21.83;;;2.60;99.90;;;;;;5090216;28;20192;-62
2022/01/12 10:38:33;;;;;;;42.57;17.57;;;2.60;99.90;;;;;;5090463;28;20579;-62
2022/01/12 10:41:03;;;;;;;57.70;22.67;;;2.60;99.90;;;;;;5090992;28;20216;-62
2022/01/12 10:43:35;;;;;;;53.00;21.93;;;2.60;99.90;;;;;;5077026;28;20193;-62
2022/01/12 10:46:04;;;;;;;58.10;23.07;;;2.60;99.90;;;;;;5076469;28;20201;-62
2022/01/12 10:48:45;;;;;;;49.23;21.20;;;2.60;99.90;;;;;;5072229;28;20389;-61
2022/01/12 10:51:15;;;;;;;65.00;23.63;;;2.60;99.90;;;;;;5081103;28;20283;-62
2022/01/12 10:53:42;;;;;;;55.73;22.60;;;2.60;99.90;;;;;;5086894;28;20204;-61
2022/01/12 10:56:11;;;;;;;41.17;17.07;;;2.60;99.90;;;;;;5069883;28;20258;-61
2022/01/12 10:58:41;;;;;;;41.63;17.63;;;2.60;99.90;;;;;;5087498;28;20196;-62
2022/01/12 11:01:10;;;;;;;64.33;25.73;;;2.70;99.90;;;;;;5087633;28;20219;-62
2022/01/12 11:03:38;;;;;;;54.13;22.10;;;2.70;99.90;;;;;;5068352;28;20200;-62
2022/01/12 11:06:09;;;;;;;63.33;24.27;;;2.70;99.90;;;;;;5076492;28;20661;-62
2022/01/12 11:08:38;;;;;;;59.40;23.90;;;2.70;99.90;;;;;;5064724;28;20205;-62
2022/01/12 11:11:06;;;;;;;44.63;18.40;;;2.80;99.90;;;;;;5083691;28;20208;-62
2022/01/12 11:13:34;;;;;;;58.97;24.20;;;2.90;99.90;;;;;;5077438;28;20193;-62
2022/01/12 11:16:01;;;;;;;46.43;19.47;;;3.00;99.90;;;;;;5084673;28;20196;-62
2022/01/12 11:18:32;;;;;;;39.97;16.73;;;3.00;99.90;;;;;;5060437;28;20246;-62
2022/01/12 11:21:05;;;;;;;28.67;13.20;;;3.00;99.90;;;;;;5087829;28;20211;-62
2022/01/12 11:23:36;;;;;;;44.13;18.03;;;3.00;99.90;;;;;;5070409;28;20232;-62
2022/01/12 11:26:14;;;;;;;45.43;17.50;;;3.00;99.90;;;;;;5086975;28;20196;-62
2022/01/12 11:28:41;;;;;;;31.67;13.37;;;3.00;99.90;;;;;;5088137;28;20211;-62
2022/01/12 11:31:09;;;;;;;55.63;21.70;;;3.00;99.90;;;;;;5057803;28;20243;-62
2022/01/12 11:33:40;;;;;;;65.77;24.57;;;3.00;99.90;;;;;;5081309;28;20197;-62
2022/01/12 11:36:16;;;;;;;64.93;24.93;;;3.00;99.90;;;;;;5080943;28;20193;-63
2022/01/12 11:38:47;;;;;;;60.57;23.37;;;3.00;99.90;;;;;;5073616;28;20595;-62
2022/01/12 11:41:18;;;;;;;48.60;19.17;;;3.00;99.90;;;;;;5058383;28;20690;-63
2022/01/12 11:43:47;;;;;;;58.93;23.63;;;3.10;99.90;;;;;;5073501;28;20663;-63
2022/01/12 11:46:17;;;;;;;44.73;20.03;;;3.10;99.90;;;;;;5073990;28;20250;-62
2022/01/12 11:48:46;;;;;;;35.07;16.33;;;3.20;99.90;;;;;;5078731;28;20668;-64
2022/01/12 11:51:17;;;;;;;52.53;22.30;;;3.20;99.90;;;;;;5067908;28;20618;-63
2022/01/12 11:53:51;;;;;;;71.37;26.47;;;3.20;99.90;;;;;;5076400;28;20223;-63
2022/01/12 11:56:20;;;;;;;64.90;25.53;;;3.20;99.90;;;;;;5083255;28;20316;-63
2022/01/12 11:58:56;;;;;;;69.63;26.37;;;3.20;99.90;;;;;;5064455;28;20200;-62
2022/01/12 12:01:25;;;;;;;59.63;24.17;;;3.10;99.90;;;;;;5083834;28;20184;-62
2022/01/12 12:04:04;;;;;;;45.60;19.97;;;3.10;99.90;;;;;;5076809;28;20717;-62
2022/01/12 12:06:31;;;;;;;59.13;23.47;;;3.10;99.90;;;;;;5080540;28;20212;-62
2022/01/12 12:09:03;;;;;;;48.00;20.17;;;3.10;99.90;;;;;;5092952;28;20212;-62
2022/01/12 12:11:32;;;;;;;50.20;21.70;;;3.10;99.90;;;;;;5081990;28;20185;-62
2022/01/12 12:14:07;;;;;;;42.73;18.07;;;3.10;99.90;;;;;;5093025;28;20658;-62
2022/01/12 12:16:36;;;;;;;34.87;16.30;;;3.20;99.90;;;;;;5081858;28;20200;-62
2022/01/12 12:19:05;;;;;;;32.00;14.73;;;3.20;99.90;;;;;;5092239;28;20279;-63
2022/01/12 12:21:33;;;;;;;25.10;12.07;;;3.30;99.90;;;;;;5087600;28;20192;-63
2022/01/12 12:24:12;;;;;;;52.90;21.10;;;3.30;99.90;;;;;;5082754;28;20288;-63
2022/01/12 12:26:47;;;;;;;39.83;16.23;;;3.40;99.90;;;;;;5085910;28;20223;-63
2022/01/12 12:29:19;;;;;;;31.07;13.90;;;3.40;99.90;;;;;;5089385;28;20247;-62
2022/01/12 12:31:49;;;;;;;60.87;25.10;;;3.40;99.90;;;;;;5093041;28;20188;-62
2022/01/12 12:34:17;;;;;;;43.03;19.37;;;3.40;99.90;;;;;;5074403;28;20695;-62
2022/01/12 12:36:44;;;;;;;35.20;15.50;;;3.40;99.90;;;;;;5092747;28;20201;-62
2022/01/12 12:39:15;;;;;;;28.57;13.37;;;3.30;99.90;;;;;;5081984;28;20181;-62
2022/01/12 12:41:46;;;;;;;34.57;15.53;;;3.30;99.90;;;;;;5089159;28;20196;-62
2022/01/12 12:44:22;;;;;;;51.70;19.37;;;3.40;99.90;;;;;;5059254;28;20273;-62
2022/01/12 12:46:50;;;;;;;61.40;23.33;;;3.40;99.90;;;;;;5092587;28;20188;-63
2022/01/12 12:49:18;;;;;;;48.63;19.63;;;3.30;99.90;;;;;;5086557;28;20213;-63
2022/01/12 12:51:45;;;;;;;48.17;18.97;;;3.30;99.90;;;;;;5087600;28;20204;-63
2022/01/12 12:54:15;;;;;;;38.93;16.37;;;3.20;99.90;;;;;;5092368;28;20536;-63
2022/01/12 12:56:48;;;;;;;37.40;15.87;;;3.20;99.90;;;;;;5086743;28;20228;-63
2022/01/12 12:59:16;;;;;;;25.73;12.50;;;3.20;99.90;;;;;;5084917;28;20280;-63
2022/01/12 13:01:43;;;;;;;57.63;23.23;;;3.20;99.90;;;;;;5073397;28;20576;-62
2022/01/12 13:04:10;;;;;;;57.23;23.30;;;3.20;99.90;;;;;;5092083;28;20239;-62
2022/01/12 13:06:38;;;;;;;52.60;22.07;;;3.20;99.90;;;;;;5085089;28;20200;-63
2022/01/12 13:09:07;;;;;;;46.07;19.50;;;3.10;99.90;;;;;;5085758;28;20345;-63
2022/01/12 13:11:37;;;;;;;55.70;23.23;;;3.10;99.90;;;;;;5080758;28;20568;-63
2022/01/12 13:14:06;;;;;;;44.63;18.83;;;3.10;99.90;;;;;;5090143;28;20196;-63
2022/01/12 13:16:33;;;;;;;32.90;14.20;;;3.00;99.90;;;;;;5090750;28;20192;-63
2022/01/12 13:19:19;;;;;;;52.00;21.13;;;3.10;99.90;;;;;;5089342;28;20196;-62
2022/01/12 13:21:45;;;;;;;58.73;23.00;;;3.10;99.90;;;;;;5083347;28;20199;-62
2022/01/12 13:24:12;;;;;;;51.00;21.10;;;3.10;99.90;;;;;;5070632;28;20192;-64
2022/01/12 13:26:41;;;;;;;46.60;19.57;;;3.10;99.90;;;;;;5090437;28;20659;-64
2022/01/12 13:29:13;;;;;;;39.13;17.27;;;3.10;99.90;;;;;;5086853;28;20258;-64
2022/01/12 13:31:40;;;;;;;39.10;15.80;;;3.10;99.90;;;;;;5073715;28;20200;-63
2022/01/12 13:34:12;;;;;;;30.27;14.70;;;3.10;99.90;;;;;;5078191;28;20205;-62
2022/01/12 13:36:47;;;;;;;34.17;14.27;;;3.20;99.90;;;;;;5088195;28;20250;-62
2022/01/12 13:39:16;;;;;;;25.77;11.07;;;3.20;99.90;;;;;;5074759;28;20216;-63
2022/01/12 13:41:46;;;;;;;34.23;15.53;;;3.20;99.90;;;;;;5082479;28;20211;-63
2022/01/12 13:44:16;;;;;;;31.43;14.00;;;3.20;99.90;;;;;;5067016;28;20203;-63
2022/01/12 13:46:52;;;;;;;33.00;14.30;;;3.30;99.90;;;;;;5080637;28;20196;-63
2022/01/12 13:49:22;;;;;;;42.30;17.33;;;3.30;99.90;;;;;;5080473;28;20216;-63
2022/01/12 13:51:58;;;;;;;47.77;20.03;;;3.20;99.90;;;;;;5078964;28;20673;-63
2022/01/12 13:54:30;;;;;;;44.07;18.60;;;3.30;99.90;;;;;;5079585;28;20222;-63
2022/01/12 13:56:59;;;;;;;46.03;18.10;;;3.30;99.90;;;;;;5065073;28;20233;-63
2022/01/12 13:59:29;;;;;;;52.63;21.43;;;3.30;99.90;;;;;;5081500;28;20201;-63
2022/01/12 14:01:58;;;;;;;54.43;22.30;;;3.30;99.90;;;;;;5078054;28;20659;-63
2022/01/12 14:04:31;;;;;;;42.20;18.70;;;3.20;99.90;;;;;;5068577;28;20273;-63